Time;durP1;ratioP1;P1;durP2;ratioP2;P2;SDS_P1;SDS_P2;PMS_P1;PMS_P2;Temp;Humidity;BMP_temperature;BMP_pressure;BME280_temperature;BME280_humidity;BME280_pressure;Samples;Min_cycle;Max_cycle;Signal;HPM_P1;HPM_P2
2022/11/19 00:02:17;;;;;;;13.85;11.70;;;;;;;-5.26;87.73;100812.47;7398929;19;20014;-68
2022/11/19 00:04:48;;;;;;;17.65;13.63;;;;;;;-5.29;87.49;100805.56;7396443;19;20365;-68
2022/11/19 00:07:17;;;;;;;15.40;11.68;;;;;;;-5.31;87.56;100814.81;7399152;19;20023;-67
2022/11/19 00:09:45;;;;;;;14.60;11.23;;;;;;;-5.35;87.27;100822.31;7396464;19;20031;-67
2022/11/19 00:14:55;;;;;;;16.50;10.45;;;;;;;-5.43;87.36;100827.97;7396083;19;20018;-68
2022/11/19 00:17:23;;;;;;;17.02;9.95;;;;;;;-5.47;87.24;100823.53;7398639;19;20049;-68
2022/11/19 00:19:54;;;;;;;16.02;11.15;;;;;;;-5.50;87.35;100822.50;7398146;19;20512;-68
2022/11/19 00:22:23;;;;;;;14.38;10.70;;;;;;;-5.55;87.22;100827.41;7396957;19;20014;-68
2022/11/19 00:24:51;;;;;;;14.68;11.23;;;;;;;-5.59;87.32;100834.06;7395751;19;20427;-68
2022/11/19 00:27:20;;;;;;;14.52;10.60;;;;;;;-5.64;87.47;100832.13;7398143;19;20031;-68
2022/11/19 00:29:48;;;;;;;15.55;10.77;;;;;;;-5.65;87.33;100838.91;7396124;19;20023;-67
2022/11/19 00:32:17;;;;;;;15.38;11.10;;;;;;;-5.67;87.27;100837.06;7397997;19;20026;-67
2022/11/19 00:34:45;;;;;;;15.90;11.18;;;;;;;-5.71;87.42;100838.63;7396075;19;20014;-68
2022/11/19 00:37:16;;;;;;;17.75;12.15;;;;;;;-5.74;87.24;100841.94;7397897;19;20015;-68
2022/11/19 00:39:45;;;;;;;18.92;11.95;;;;;;;-5.78;87.25;100836.59;7398003;19;20031;-69
2022/11/19 00:42:13;;;;;;;17.25;11.77;;;;;;;-5.80;87.27;100839.09;7396092;19;20485;-68
2022/11/19 00:44:42;;;;;;;17.58;11.65;;;;;;;-5.84;87.34;100843.97;7394894;19;20018;-68
2022/11/19 00:47:10;;;;;;;16.67;11.23;;;;;;;-5.85;87.28;100845.66;7397384;19;20478;-68
2022/11/19 00:49:39;;;;;;;17.17;11.18;;;;;;;-5.87;87.11;100849.81;7395729;19;20031;-68
2022/11/19 00:52:07;;;;;;;17.42;11.32;;;;;;;-5.89;87.22;100851.41;7394932;19;20489;-68
2022/11/19 00:54:38;;;;;;;14.38;10.90;;;;;;;-5.93;87.30;100845.28;7395397;19;20022;-67
2022/11/19 00:57:07;;;;;;;13.55;10.38;;;;;;;-5.94;87.29;100847.78;7397610;19;20031;-67
2022/11/19 00:59:36;;;;;;;19.98;13.32;;;;;;;-5.95;87.26;100846.03;7395147;19;20031;-67
2022/11/19 01:02:04;;;;;;;14.23;10.60;;;;;;;-5.97;87.07;100842.53;7396875;19;20014;-68
2022/11/19 01:04:33;;;;;;;15.25;10.07;;;;;;;-5.99;87.13;100857.84;7395613;19;20018;-68
2022/11/19 01:07:01;;;;;;;15.75;10.68;;;;;;;-6.01;87.32;100854.31;7396769;19;20590;-68
2022/11/19 01:09:30;;;;;;;16.60;11.20;;;;;;;-6.06;87.12;100843.88;7394782;19;20027;-69
2022/11/19 01:12:01;;;;;;;18.58;11.73;;;;;;;-6.06;87.37;100846.44;7396919;19;20018;-69
2022/11/19 01:14:29;;;;;;;15.07;10.68;;;;;;;-6.07;87.17;100847.22;7395605;19;20015;-69
2022/11/19 01:16:57;;;;;;;14.85;11.00;;;;;;;-6.09;87.21;100847.97;7395001;19;20074;-68
2022/11/19 01:19:26;;;;;;;15.43;11.20;;;;;;;-6.12;87.13;100848.69;7396673;19;20014;-68
2022/11/19 01:21:54;;;;;;;14.63;10.82;;;;;;;-6.14;87.10;100850.31;7396559;19;20051;-69
2022/11/19 01:24:23;;;;;;;15.15;10.43;;;;;;;-6.16;86.97;100845.94;7394836;19;20372;-69
2022/11/19 01:26:51;;;;;;;15.70;10.70;;;;;;;-6.18;87.21;100848.41;7394756;19;20022;-69
2022/11/19 01:29:22;;;;;;;15.32;10.32;;;;;;;-6.20;87.12;100844.91;7395551;19;20022;-68
2022/11/19 01:31:51;;;;;;;12.52;9.52;;;;;;;-6.21;87.24;100845.72;7396623;19;20027;-69
2022/11/19 01:34:19;;;;;;;15.20;9.93;;;;;;;-6.23;87.11;100852.41;7394946;19;20018;-68
2022/11/19 01:36:48;;;;;;;16.50;11.18;;;;;;;-6.27;87.14;100853.06;7395848;19;20380;-69
2022/11/19 01:39:18;;;;;;;13.02;10.18;;;;;;;-6.28;87.13;100852.22;7396100;19;20032;-69
2022/11/19 01:41:46;;;;;;;19.13;12.05;;;;;;;-6.29;87.19;100859.78;7395408;19;20015;-69
2022/11/19 01:44:45;;;;;;;14.95;10.27;;;;;;;-6.30;87.27;100848.69;7394907;19;20015;-68
2022/11/19 01:47:16;;;;;;;18.35;11.65;;;;;;;-6.32;87.17;100849.44;7394608;19;20018;-69
2022/11/19 01:49:44;;;;;;;17.30;10.93;;;;;;;-6.33;87.15;100852.78;7394403;19;20024;-69
2022/11/19 01:52:13;;;;;;;17.50;11.38;;;;;;;-6.35;86.99;100849.28;7394002;19;20018;-69
2022/11/19 01:54:47;;;;;;;16.65;10.88;;;;;;;-6.38;87.01;100861.09;7393706;19;20388;-69
2022/11/19 01:57:18;;;;;;;15.60;10.95;;;;;;;-6.39;87.16;100859.34;7396033;19;20014;-69
2022/11/19 01:59:50;;;;;;;15.50;10.35;;;;;;;-6.40;87.35;100855.03;7395110;19;20094;-69
2022/11/19 02:02:23;;;;;;;16.88;11.63;;;;;;;-6.39;87.33;100855.91;7395933;19;20015;-69
2022/11/19 02:04:52;;;;;;;17.80;11.43;;;;;;;-6.41;87.21;100857.50;7393763;19;20117;-68
2022/11/19 02:07:27;;;;;;;15.15;10.50;;;;;;;-6.42;87.34;100864.31;7394823;19;20024;-68
2022/11/19 02:09:56;;;;;;;19.95;11.80;;;;;;;-6.43;87.24;100861.66;7393022;19;20375;-68
2022/11/19 02:12:38;;;;;;;13.63;9.77;;;;;;;-6.47;87.48;100863.22;7394817;19;20385;-69
2022/11/19 02:15:26;;;;;;;14.73;11.27;;;;;;;-6.47;87.21;100867.41;7393703;19;20018;-67
2022/11/19 02:18:24;;;;;;;15.52;9.98;;;;;;;-6.49;87.17;100869.91;7395142;19;20011;-69
2022/11/19 02:21:05;;;;;;;18.00;11.25;;;;;;;-6.51;87.29;100874.03;7395493;19;20022;-69
2022/11/19 02:24:02;;;;;;;19.63;11.43;;;;;;;-6.54;87.40;100866.25;7394435;19;20014;-69
2022/11/19 02:27:16;;;;;;;21.88;11.38;;;;;;;-6.58;87.05;100866.91;7393818;19;20021;-68
2022/11/19 02:30:05;;;;;;;18.55;11.23;;;;;;;-6.57;87.19;100872.09;7393765;19;20023;-68
2022/11/19 02:32:37;;;;;;;15.32;10.30;;;;;;;-6.60;87.24;100871.06;7395042;19;20085;-68
2022/11/19 02:35:17;;;;;;;16.42;10.93;;;;;;;-6.63;87.36;100874.31;7394805;19;20019;-68
2022/11/19 02:37:51;;;;;;;14.30;9.93;;;;;;;-6.63;87.32;100876.00;7394178;19;20014;-68
2022/11/19 02:40:25;;;;;;;13.95;10.23;;;;;;;-6.65;87.21;100885.25;7402147;19;20418;-68
2022/11/19 02:43:04;;;;;;;15.77;11.15;;;;;;;-6.69;87.42;100878.25;7400102;19;20086;-68
2022/11/19 02:45:39;;;;;;;16.20;11.70;;;;;;;-6.69;87.38;100884.22;7401492;19;20485;-68
2022/11/19 02:48:12;;;;;;;16.55;11.35;;;;;;;-6.72;87.14;100881.53;7398917;19;20074;-69
2022/11/19 02:50:45;;;;;;;20.90;12.53;;;;;;;-6.75;87.27;100868.59;7399180;19;20019;-69
2022/11/19 02:53:14;;;;;;;23.98;15.20;;;;;;;-6.76;87.45;100882.16;7400418;19;21097;-69
2022/11/19 02:56:09;;;;;;;39.60;18.13;;;;;;;-6.78;87.43;100884.63;7401132;19;20019;-68
2022/11/19 03:06:41;;;;;;;34.40;18.23;;;;;;;-6.82;87.47;100885.28;7401275;19;20002;-68
2022/11/19 03:09:10;;;;;;;32.83;16.33;;;;;;;-6.82;87.14;100880.19;7400262;19;20014;-69
2022/11/19 03:11:39;;;;;;;20.08;12.95;;;;;;;-6.81;87.28;100886.16;7398318;19;20015;-68
2022/11/19 03:17:05;;;;;;;20.13;12.65;;;;;;;-6.83;87.33;100890.31;7400571;19;20374;-69
2022/11/19 03:19:39;;;;;;;16.35;10.57;;;;;;;-6.89;87.36;100881.56;7401140;19;20024;-69
2022/11/19 03:22:13;;;;;;;17.42;10.73;;;;;;;-6.85;87.29;100886.81;7401167;19;20021;-69
2022/11/19 03:24:46;;;;;;;17.38;11.38;;;;;;;-6.87;87.39;100887.59;7397903;19;20018;-68
2022/11/19 03:27:20;;;;;;;16.17;11.50;;;;;;;-6.89;87.31;100881.56;7398524;19;20031;-68
2022/11/19 03:29:51;;;;;;;17.60;11.85;;;;;;;-6.90;87.28;100879.78;7398149;19;20014;-69
2022/11/19 03:32:27;;;;;;;19.42;12.13;;;;;;;-6.91;87.58;100883.13;7399949;19;20553;-68
2022/11/19 03:35:01;;;;;;;15.48;11.05;;;;;;;-6.94;87.52;100882.97;7397546;19;20024;-68
2022/11/19 03:37:33;;;;;;;18.23;12.60;;;;;;;-6.94;87.23;100887.19;7399704;19;20430;-68
2022/11/19 03:40:04;;;;;;;17.40;11.40;;;;;;;-6.95;87.45;100891.44;7397898;19;20011;-69
2022/11/19 03:42:34;;;;;;;13.82;9.63;;;;;;;-6.94;87.30;100889.75;7398492;19;20023;-68
2022/11/19 03:45:06;;;;;;;15.50;10.75;;;;;;;-6.96;87.45;100888.78;7396966;19;20022;-69
2022/11/19 03:47:40;;;;;;;21.48;11.88;;;;;;;-6.97;87.32;100893.03;7397505;19;20502;-69
2022/11/19 03:50:23;;;;;;;17.00;11.93;;;;;;;-6.99;87.38;100894.59;7397441;19;20098;-68
2022/11/19 03:52:51;;;;;;;16.85;11.57;;;;;;;-7.00;87.27;100891.97;7399765;19;20014;-68
2022/11/19 03:55:20;;;;;;;17.15;12.18;;;;;;;-7.05;87.49;100890.09;7399162;19;20351;-68
2022/11/19 03:57:48;;;;;;;19.80;12.85;;;;;;;-7.05;87.39;100895.19;7399424;19;20031;-69
2022/11/19 04:00:18;;;;;;;18.38;13.10;;;;;;;-7.07;87.16;100903.56;7398952;19;20485;-69
2022/11/19 04:02:49;;;;;;;18.27;11.50;;;;;;;-7.10;87.28;100898.28;7399013;19;20027;-68
2022/11/19 04:05:18;;;;;;;17.40;11.95;;;;;;;-7.12;87.20;100900.75;7399604;19;20064;-68
2022/11/19 04:07:46;;;;;;;16.15;12.05;;;;;;;-7.15;87.19;100892.97;7399040;19;20015;-69
2022/11/19 04:10:15;;;;;;;17.00;10.32;;;;;;;-7.18;87.31;100897.00;7396630;19;20032;-68
2022/11/19 04:12:43;;;;;;;16.95;10.85;;;;;;;-7.18;87.48;100895.31;7398330;19;20039;-69
2022/11/19 04:15:14;;;;;;;16.67;11.20;;;;;;;-7.20;87.09;100905.44;7398802;19;20022;-68
2022/11/19 04:17:43;;;;;;;16.10;10.95;;;;;;;-7.24;87.21;100898.44;7398774;19;20015;-68
2022/11/19 04:20:14;;;;;;;15.65;10.25;;;;;;;-7.22;87.35;100908.72;7398627;19;20018;-68
2022/11/19 04:22:42;;;;;;;15.13;10.43;;;;;;;-7.24;87.13;100915.41;7398539;19;20429;-69
2022/11/19 04:25:11;;;;;;;20.23;12.32;;;;;;;-7.25;87.11;100917.09;7398460;19;20082;-68
2022/11/19 04:27:40;;;;;;;20.20;12.05;;;;;;;-7.28;87.34;100910.94;7398423;19;20549;-68
2022/11/19 04:30:10;;;;;;;17.38;11.60;;;;;;;-7.31;86.99;100914.22;7396509;19;20011;-68
2022/11/19 04:32:38;;;;;;;17.85;10.82;;;;;;;-7.33;86.99;100914.91;7397664;19;20544;-68
2022/11/19 04:35:07;;;;;;;14.85;10.10;;;;;;;-7.40;87.08;100912.03;7398190;19;20035;-68
2022/11/19 04:37:38;;;;;;;17.08;12.00;;;;;;;-7.40;87.31;100919.69;7397800;19;20545;-68
2022/11/19 04:40:08;;;;;;;15.95;10.75;;;;;;;-7.43;87.28;100914.44;7398361;19;20018;-69
2022/11/19 04:42:37;;;;;;;15.93;10.90;;;;;;;-7.42;87.42;100918.75;7396534;19;20094;-68
2022/11/19 04:45:06;;;;;;;15.07;10.93;;;;;;;-7.45;87.21;100926.22;7397847;19;20098;-69
2022/11/19 04:47:34;;;;;;;19.33;12.60;;;;;;;-7.45;87.28;100927.91;7397667;19;20015;-69
2022/11/19 04:50:03;;;;;;;20.50;11.07;;;;;;;-7.46;87.40;100927.00;7396697;19;20018;-68
2022/11/19 04:52:33;;;;;;;17.73;12.18;;;;;;;-7.47;87.37;100919.28;7395780;19;20087;-69
2022/11/19 04:55:04;;;;;;;20.23;13.18;;;;;;;-7.47;87.31;100919.28;7395511;19;20074;-68
2022/11/19 04:57:32;;;;;;;17.42;11.32;;;;;;;-7.46;87.43;100916.81;7397133;19;20010;-68
2022/11/19 05:00:09;;;;;;;17.70;11.32;;;;;;;-7.45;87.54;100916.00;7397431;19;20090;-68
2022/11/19 05:02:37;;;;;;;21.30;12.18;;;;;;;-7.43;87.39;100919.53;7394439;19;20568;-68
2022/11/19 05:05:06;;;;;;;16.42;11.05;;;;;;;-7.42;87.44;100916.19;7397176;19;20081;-68
2022/11/19 05:07:34;;;;;;;16.20;11.05;;;;;;;-7.39;87.51;100913.81;7397314;19;20078;-69
2022/11/19 05:10:12;;;;;;;14.50;10.35;;;;;;;-7.40;87.38;100912.03;7396775;19;20093;-68
2022/11/19 05:12:41;;;;;;;15.57;10.73;;;;;;;-7.39;87.44;100916.34;7397125;19;20078;-68
2022/11/19 05:15:11;;;;;;;17.73;11.60;;;;;;;-7.37;87.41;100921.53;7396427;19;20552;-68
2022/11/19 05:17:39;;;;;;;20.52;11.77;;;;;;;-7.36;87.38;100925.84;7397043;19;20090;-69
2022/11/19 05:20:09;;;;;;;18.75;10.38;;;;;;;-7.37;87.33;100924.06;7396670;19;20086;-69
2022/11/19 05:22:38;;;;;;;17.05;11.48;;;;;;;-7.36;87.68;100918.19;7396129;19;20499;-69
2022/11/19 05:25:10;;;;;;;16.77;11.65;;;;;;;-7.35;87.60;100919.94;7394813;19;20089;-68
2022/11/19 05:27:38;;;;;;;17.42;10.77;;;;;;;-7.35;87.43;100922.50;7396078;19;20081;-69
2022/11/19 05:30:09;;;;;;;14.27;9.75;;;;;;;-7.34;87.34;100920.81;7395904;19;20019;-68
2022/11/19 05:32:37;;;;;;;18.27;12.05;;;;;;;-7.35;87.43;100917.41;7395897;19;20032;-68
2022/11/19 05:35:07;;;;;;;19.48;13.38;;;;;;;-7.35;87.37;100904.66;7396104;19;20030;-68
2022/11/19 05:37:35;;;;;;;20.27;12.00;;;;;;;-7.38;87.53;100907.91;7396011;19;20036;-68
2022/11/19 05:40:04;;;;;;;18.60;11.52;;;;;;;-7.35;87.63;100902.09;7395944;19;20015;-69
2022/11/19 05:42:35;;;;;;;17.38;10.98;;;;;;;-7.34;87.63;100902.97;7393857;19;20082;-69
2022/11/19 05:45:03;;;;;;;17.13;10.77;;;;;;;-7.34;87.57;100905.50;7396341;19;20022;-68
2022/11/19 05:47:32;;;;;;;16.73;10.77;;;;;;;-7.36;87.44;100901.22;7395403;19;20086;-69
2022/11/19 05:50:00;;;;;;;18.33;11.98;;;;;;;-7.38;87.22;100907.03;7395442;19;20031;-68
2022/11/19 05:52:29;;;;;;;18.17;11.77;;;;;;;-7.40;87.39;100906.06;7395747;19;20086;-69
2022/11/19 05:54:57;;;;;;;20.17;11.93;;;;;;;-7.42;87.36;100908.56;7393475;19;20022;-68
2022/11/19 05:57:26;;;;;;;18.85;12.25;;;;;;;-7.46;87.38;100911.72;7395176;19;20361;-68
2022/11/19 05:59:57;;;;;;;22.20;12.15;;;;;;;-7.48;87.37;100920.97;7393530;19;20440;-68
2022/11/19 06:02:25;;;;;;;16.33;11.30;;;;;;;-7.50;87.29;100920.00;7395996;19;20018;-68
2022/11/19 06:04:54;;;;;;;18.95;13.07;;;;;;;-7.50;87.22;100929.31;7393577;19;20022;-67
2022/11/19 06:07:22;;;;;;;18.95;12.57;;;;;;;-7.51;87.76;100925.00;7395344;19;20018;-69
2022/11/19 06:09:51;;;;;;;20.55;13.30;;;;;;;-7.52;87.52;100924.13;7394982;19;20074;-68
2022/11/19 06:12:19;;;;;;;25.35;13.95;;;;;;;-7.50;87.57;100931.88;7394700;19;20019;-69
2022/11/19 06:14:48;;;;;;;20.48;12.70;;;;;;;-7.49;87.73;100920.84;7398472;19;20090;-68
2022/11/19 06:17:19;;;;;;;20.45;12.48;;;;;;;-7.49;87.54;100921.75;7402239;19;20373;-68
2022/11/19 06:19:47;;;;;;;19.85;13.20;;;;;;;-7.48;87.72;100918.41;7402620;19;20031;-68
2022/11/19 06:22:16;;;;;;;22.15;13.18;;;;;;;-7.47;87.58;100922.69;7402332;19;20086;-68
2022/11/19 06:24:44;;;;;;;16.40;12.27;;;;;;;-7.45;87.72;100925.34;7398926;19;20500;-68
2022/11/19 06:27:13;;;;;;;21.15;13.13;;;;;;;-7.45;87.69;100923.66;7402292;19;20074;-69
2022/11/19 06:29:41;;;;;;;22.02;12.88;;;;;;;-7.43;87.62;100919.53;7399019;19;20015;-68
2022/11/19 06:32:10;;;;;;;17.75;12.93;;;;;;;-7.42;87.78;100921.28;7399472;19;20078;-68
2022/11/19 06:34:41;;;;;;;21.45;13.40;;;;;;;-7.41;87.69;100923.03;7399251;19;20500;-69
2022/11/19 06:37:09;;;;;;;19.65;13.25;;;;;;;-7.41;87.81;100917.94;7399498;19;20022;-69
2022/11/19 06:39:38;;;;;;;19.48;13.43;;;;;;;-7.41;87.76;100933.22;7401568;19;20450;-68
2022/11/19 06:45:02;;;;;;;20.02;13.52;;;;;;;-7.38;87.91;100941.06;7395282;19;20585;-69
2022/11/19 06:47:31;;;;;;;20.42;13.85;;;;;;;-7.36;87.87;100943.69;7400322;19;20081;-69
2022/11/19 06:50:03;;;;;;;21.73;14.15;;;;;;;-7.37;87.81;100936.81;7401608;19;20031;-69
2022/11/19 06:52:31;;;;;;;20.45;14.10;;;;;;;-7.36;87.87;100942.00;7399099;19;20014;-69
2022/11/19 06:54:59;;;;;;;29.50;19.67;;;;;;;-7.35;87.71;100932.69;7398689;19;20110;-69
2022/11/19 06:57:28;;;;;;;19.27;14.40;;;;;;;-7.34;87.76;100931.00;7401162;19;20513;-70
2022/11/19 06:59:56;;;;;;;21.48;14.27;;;;;;;-7.33;87.76;100931.09;7401241;19;20033;-69
2022/11/19 07:02:25;;;;;;;20.48;12.75;;;;;;;-7.30;87.84;100938.00;7400956;19;20070;-69
2022/11/19 07:04:53;;;;;;;22.25;14.45;;;;;;;-7.29;87.90;100935.56;7398492;19;20070;-69
2022/11/19 07:07:24;;;;;;;23.83;14.90;;;;;;;-7.28;88.06;100934.78;7401200;19;20102;-68
2022/11/19 07:09:59;;;;;;;19.55;13.40;;;;;;;-7.26;88.17;100940.81;7400684;19;20486;-69
2022/11/19 07:12:28;;;;;;;27.85;14.65;;;;;;;-7.25;87.96;100942.59;7398491;19;20015;-69
2022/11/19 07:14:56;;;;;;;18.67;13.40;;;;;;;-7.24;87.87;100943.44;7398308;19;20022;-68
2022/11/19 07:17:25;;;;;;;22.33;14.13;;;;;;;-7.27;88.25;100933.09;7398159;19;20082;-69
2022/11/19 07:19:53;;;;;;;22.98;14.45;;;;;;;-7.22;87.91;100941.88;7400583;19;20085;-69
2022/11/19 07:22:24;;;;;;;24.58;15.52;;;;;;;-7.21;88.12;100939.38;7400100;19;20050;-68
2022/11/19 07:24:53;;;;;;;25.75;14.80;;;;;;;-7.20;87.78;100935.19;7395465;19;20033;-68
2022/11/19 07:27:21;;;;;;;23.40;14.68;;;;;;;-7.20;88.07;100936.06;7400250;19;20094;-69
2022/11/19 07:29:49;;;;;;;22.38;13.52;;;;;;;-7.17;88.21;100935.34;7397684;19;20032;-68
2022/11/19 07:32:18;;;;;;;23.80;14.18;;;;;;;-7.14;88.21;100932.97;7398231;19;20010;-68
2022/11/19 07:34:46;;;;;;;21.38;13.05;;;;;;;-7.11;88.19;100933.13;7397618;19;20090;-68
2022/11/19 07:37:15;;;;;;;22.92;14.10;;;;;;;-7.09;88.20;100926.44;7400756;19;20074;-67
2022/11/19 07:39:46;;;;;;;22.85;14.40;;;;;;;-7.04;88.47;100929.19;7399766;19;20074;-68
2022/11/19 07:44:55;;;;;;;27.77;16.77;;;;;;;-6.90;88.59;100919.72;7398022;19;20090;-68
2022/11/19 07:47:23;;;;;;;23.75;14.57;;;;;;;-6.84;88.67;100924.28;7399407;19;20485;-69
2022/11/19 07:49:53;;;;;;;24.23;15.82;;;;;;;-6.79;88.64;100928.81;7399273;19;20111;-68
2022/11/19 07:52:21;;;;;;;26.85;17.05;;;;;;;-6.74;88.54;100937.56;7397268;19;20014;-68
2022/11/19 07:54:52;;;;;;;27.42;17.00;;;;;;;-6.68;88.60;100931.91;7397054;19;20084;-68
2022/11/19 07:57:20;;;;;;;24.10;15.98;;;;;;;-6.63;88.62;100940.69;7400009;19;20074;-68
2022/11/19 07:59:49;;;;;;;27.80;15.65;;;;;;;-6.57;88.63;100935.00;7397541;19;20023;-67
2022/11/19 08:02:17;;;;;;;25.77;15.95;;;;;;;-6.52;88.67;100933.59;7398937;19;20521;-68
2022/11/19 08:04:46;;;;;;;24.45;16.40;;;;;;;-6.45;88.54;100934.75;7397068;19;20079;-68
2022/11/19 08:07:14;;;;;;;26.00;16.27;;;;;;;-6.39;88.72;100933.38;7399072;19;20085;-68
2022/11/19 08:09:42;;;;;;;24.77;17.15;;;;;;;-6.32;88.80;100936.25;7398899;19;20082;-68
2022/11/19 08:12:13;;;;;;;26.00;16.67;;;;;;;-6.26;88.72;100934.00;7397242;19;20090;-68
2022/11/19 08:14:42;;;;;;;28.17;18.08;;;;;;;-6.19;88.55;100925.84;7396766;19;20039;-70
2022/11/19 08:19:51;;;;;;;25.02;16.48;;;;;;;-6.05;88.85;100918.84;7398593;19;20342;-69
2022/11/19 08:22:20;;;;;;;25.42;18.20;;;;;;;-5.99;88.57;100916.59;7397707;19;20605;-68
2022/11/19 08:24:48;;;;;;;26.95;20.15;;;;;;;-5.92;88.96;100920.28;7395974;19;20085;-68
2022/11/19 08:27:19;;;;;;;24.38;16.20;;;;;;;-5.86;88.81;100920.56;7398443;19;20074;-69
2022/11/19 08:29:48;;;;;;;24.70;15.40;;;;;;;-5.82;88.64;100919.06;7398642;19;20017;-68
2022/11/19 08:32:16;;;;;;;21.00;16.00;;;;;;;-5.75;88.60;100921.06;7396649;19;20429;-69
2022/11/19 08:34:45;;;;;;;20.67;13.60;;;;;;;-5.70;88.67;100916.19;7395782;19;20078;-68
2022/11/19 08:37:13;;;;;;;19.58;13.77;;;;;;;-5.66;88.72;100915.50;7397081;19;20082;-68
2022/11/19 08:39:42;;;;;;;19.60;13.77;;;;;;;-5.61;89.02;100903.81;7397183;19;20548;-69
2022/11/19 08:44:54;;;;;;;27.20;15.38;;;;;;;-5.50;88.92;100912.00;7395460;19;20025;-69
2022/11/19 08:47:23;;;;;;;22.27;14.75;;;;;;;-5.46;89.10;100908.78;7396677;19;20031;-69
2022/11/19 08:49:51;;;;;;;26.88;16.77;;;;;;;-5.42;88.87;100905.53;7394901;19;20074;-68
2022/11/19 08:52:20;;;;;;;28.63;16.38;;;;;;;-5.37;88.91;100908.31;7395203;19;20015;-68
2022/11/19 08:54:48;;;;;;;25.30;16.10;;;;;;;-5.32;89.03;100912.84;7395918;19;20086;-69
2022/11/19 08:57:17;;;;;;;23.30;13.95;;;;;;;-5.26;89.18;100910.56;7397890;19;20022;-68
2022/11/19 08:59:45;;;;;;;30.75;18.38;;;;;;;-5.20;89.11;100917.63;7396651;19;20073;-66
2022/11/19 09:02:16;;;;;;;29.55;18.13;;;;;;;-5.13;89.47;100906.88;7395886;19;20043;-67
2022/11/19 09:04:45;;;;;;;33.95;19.65;;;;;;;-5.04;89.40;100902.97;7394962;19;20023;-69
2022/11/19 09:07:13;;;;;;;27.83;17.58;;;;;;;-4.97;89.41;100910.97;7396681;19;20037;-67
2022/11/19 09:09:41;;;;;;;27.95;17.20;;;;;;;-4.92;89.34;100908.63;7396260;19;20082;-69
2022/11/19 09:12:11;;;;;;;24.67;16.90;;;;;;;-4.86;89.32;100913.16;7395345;19;20089;-69
2022/11/19 09:14:39;;;;;;;22.92;15.77;;;;;;;-4.82;89.30;100909.91;7394512;19;20090;-68
2022/11/19 09:17:07;;;;;;;26.10;15.43;;;;;;;-4.84;89.37;100893.59;7396366;19;20190;-69
2022/11/19 09:19:38;;;;;;;23.90;17.05;;;;;;;-4.73;89.36;100909.44;7393857;19;20019;-68
2022/11/19 09:22:07;;;;;;;25.33;17.60;;;;;;;-4.68;89.41;100910.50;7395168;19;20086;-68
2022/11/19 09:24:35;;;;;;;25.48;16.00;;;;;;;-4.63;89.29;100914.13;7394519;19;20102;-68
2022/11/19 09:27:04;;;;;;;25.10;16.13;;;;;;;-4.58;89.25;100920.31;7395975;19;20019;-68
2022/11/19 09:29:32;;;;;;;23.70;15.32;;;;;;;-4.52;89.34;100922.28;7395360;19;20017;-67
2022/11/19 09:32:00;;;;;;;23.23;14.95;;;;;;;-4.49;89.12;100919.84;7394607;19;20094;-67
2022/11/19 09:34:29;;;;;;;20.77;13.68;;;;;;;-4.43;88.36;100920.09;7393970;19;20577;-68
2022/11/19 09:37:00;;;;;;;17.92;13.23;;;;;;;-4.38;88.59;100922.88;7396051;19;20537;-69
2022/11/19 09:39:29;;;;;;;21.15;13.20;;;;;;;-4.35;88.53;100911.03;7395809;19;20074;-68
2022/11/19 09:42:03;;;;;;;20.38;13.48;;;;;;;-4.27;88.55;100913.94;7395664;19;20027;-67
2022/11/19 09:44:52;;;;;;;18.67;12.27;;;;;;;-4.21;88.38;100916.72;7393150;19;20018;-70
2022/11/19 09:47:31;;;;;;;18.48;12.35;;;;;;;-4.16;87.97;100912.66;7395326;19;20094;-67
2022/11/19 09:50:07;;;;;;;17.45;11.43;;;;;;;-4.08;88.17;100918.13;7394496;19;20070;-68
2022/11/19 09:52:44;;;;;;;16.83;11.10;;;;;;;-3.99;87.96;100917.63;7393853;19;20082;-68
2022/11/19 09:55:19;;;;;;;15.48;10.80;;;;;;;-3.90;88.22;100917.97;7393422;19;20481;-68
2022/11/19 09:57:52;;;;;;;19.60;10.95;;;;;;;-3.81;88.38;100905.50;7394782;19;20549;-67
2022/11/19 10:00:23;;;;;;;18.15;11.63;;;;;;;-3.68;88.42;100908.56;7395351;19;20018;-67
2022/11/19 10:02:52;;;;;;;19.85;11.32;;;;;;;-3.55;89.58;100900.53;7394228;19;20026;-67
2022/11/19 10:05:31;;;;;;;19.00;11.80;;;;;;;-3.41;89.09;100892.47;7394476;19;20026;-69
2022/11/19 10:08:15;;;;;;;16.15;11.13;;;;;;;-3.29;89.14;100892.94;7394568;19;20078;-67
2022/11/19 10:10:52;;;;;;;18.55;11.88;;;;;;;-3.16;89.13;100894.25;7394533;19;20588;-67
2022/11/19 10:13:39;;;;;;;16.00;10.30;;;;;;;-3.04;88.92;100894.72;7392637;19;20425;-67
2022/11/19 10:16:24;;;;;;;14.10;10.05;;;;;;;-2.89;88.97;100885.78;7394200;19;20090;-68
2022/11/19 10:18:59;;;;;;;16.80;11.15;;;;;;;-2.78;88.73;100881.91;7394685;19;20070;-66
2022/11/19 10:21:33;;;;;;;13.25;8.65;;;;;;;-2.67;87.83;100877.16;7393101;19;20031;-67
2022/11/19 10:24:16;;;;;;;11.85;9.30;;;;;;;-2.56;87.74;100880.09;7392487;19;20035;-67
2022/11/19 10:26:50;;;;;;;14.50;8.93;;;;;;;-2.47;87.28;100888.09;7394925;19;20018;-67
2022/11/19 10:29:21;;;;;;;12.00;8.25;;;;;;;-2.40;87.90;100879.78;7394713;19;20022;-67
2022/11/19 10:31:52;;;;;;;10.80;7.30;;;;;;;-2.32;87.38;100883.47;7394194;19;20019;-68
2022/11/19 10:34:26;;;;;;;11.15;7.60;;;;;;;-2.26;87.19;100887.97;7392681;19;20078;-67
2022/11/19 10:36:59;;;;;;;11.82;8.05;;;;;;;-2.21;87.38;100881.25;7393841;19;20414;-68
2022/11/19 10:39:37;;;;;;;9.63;6.82;;;;;;;-2.11;86.47;100882.44;7392449;19;20087;-68
2022/11/19 10:42:24;;;;;;;9.85;7.35;;;;;;;-2.03;87.37;100878.41;7394037;19;20029;-67
2022/11/19 10:44:57;;;;;;;22.08;11.63;;;;;;;-1.97;87.39;100881.16;7390919;19;20007;-67
2022/11/19 10:47:33;;;;;;;12.27;7.38;;;;;;;-1.88;83.05;100885.75;7391957;19;20018;-66
2022/11/19 10:50:02;;;;;;;7.28;5.82;;;;;;;-1.82;81.88;100875.63;7394318;19;20074;-67
2022/11/19 10:52:33;;;;;;;7.75;5.70;;;;;;;-1.73;83.34;100864.75;7392186;19;20380;-67
2022/11/19 10:55:17;;;;;;;10.02;6.80;;;;;;;-1.66;83.22;100863.25;7390756;19;20577;-67
2022/11/19 10:57:47;;;;;;;9.27;6.30;;;;;;;-1.59;81.61;100857.47;7392043;19;20114;-66
2022/11/19 11:00:18;;;;;;;10.10;6.65;;;;;;;-1.52;81.38;100861.06;7397336;19;20070;-67
2022/11/19 11:02:48;;;;;;;17.00;8.27;;;;;;;-1.46;81.48;100852.69;7397864;19;20078;-68
2022/11/19 11:05:19;;;;;;;6.22;4.40;;;;;;;-1.41;77.93;100858.84;7400955;19;20026;-67
2022/11/19 11:07:54;;;;;;;8.07;5.00;;;;;;;-1.36;75.61;100849.53;7398000;19;20066;-67
2022/11/19 11:10:29;;;;;;;;;;;;;;;-1.32;73.79;100843.63;7401950;19;20070;-68
2022/11/19 11:15:47;;;;;;;5.88;4.93;;;;;;;-1.26;73.63;100836.09;7400911;19;20370;-68
2022/11/19 11:18:16;;;;;;;8.02;6.30;;;;;;;-1.19;78.76;100838.00;7398055;19;20044;-68
2022/11/19 11:20:49;;;;;;;6.00;4.85;;;;;;;-1.17;75.15;100832.91;7400001;19;20078;-68
2022/11/19 11:23:19;;;;;;;6.15;4.53;;;;;;;-1.13;77.10;100815.84;7400200;19;20018;-67
2022/11/19 11:26:04;;;;;;;7.68;4.75;;;;;;;-1.10;75.31;100813.34;7400428;19;20091;-68
2022/11/19 11:28:33;;;;;;;5.88;4.68;;;;;;;-1.06;73.15;100813.47;7400251;19;20086;-68
2022/11/19 11:31:03;;;;;;;5.57;4.35;;;;;;;-1.03;70.72;100807.53;7399795;19;20070;-68
2022/11/19 11:33:36;;;;;;;6.70;5.13;;;;;;;-1.01;73.53;100806.72;7397208;19;20086;-67
2022/11/19 11:36:08;;;;;;;10.23;6.65;;;;;;;-0.95;75.53;100808.59;7399955;19;20010;-69
2022/11/19 11:38:44;;;;;;;9.65;6.47;;;;;;;-0.89;77.08;100815.63;7400165;19;20078;-68
2022/11/19 11:41:17;;;;;;;5.47;4.50;;;;;;;-0.84;74.41;100816.59;7399961;19;20021;-69
2022/11/19 11:44:02;;;;;;;5.75;3.85;;;;;;;-0.80;75.15;100805.53;7397596;19;20422;-67
2022/11/19 11:46:41;;;;;;;8.13;5.00;;;;;;;-0.76;72.69;100817.66;7397280;19;20041;-69
2022/11/19 11:49:20;;;;;;;6.38;4.95;;;;;;;-0.73;72.15;100814.31;7399996;19;20348;-66
2022/11/19 11:51:58;;;;;;;7.00;4.65;;;;;;;-0.69;74.01;100809.25;7399964;19;20099;-67
2022/11/19 11:54:27;;;;;;;4.53;4.00;;;;;;;-0.60;73.01;100821.50;7397328;19;20503;-67
2022/11/19 11:57:10;;;;;;;5.07;3.75;;;;;;;-0.52;66.51;100825.16;7397169;19;20086;-67
2022/11/19 11:59:39;;;;;;;4.73;3.80;;;;;;;-0.44;66.79;100822.78;7399855;19;20086;-67